createdAt,value
2022-11-05T00:01:17.819Z,28.35
2022-11-05T00:04:04.317Z,27.90
2022-11-05T00:06:50.096Z,29.45
2022-11-05T00:09:36.977Z,26.83
2022-11-05T00:12:31.103Z,25.77
2022-11-05T00:15:17.478Z,28.75
2022-11-05T00:17:45.462Z,26.20
2022-11-05T00:20:16.433Z,26.30
2022-11-05T00:23:02.345Z,23.77
2022-11-05T00:25:30.860Z,29.20
2022-11-05T00:28:03.133Z,27.88
2022-11-05T00:30:31.184Z,29.57
2022-11-05T00:33:03.987Z,26.35
2022-11-05T00:35:31.265Z,25.90
2022-11-05T00:37:58.629Z,25.52
2022-11-05T00:40:26.350Z,26.67
2022-11-05T00:43:13.109Z,27.13
2022-11-05T00:45:41.750Z,24.92
2022-11-05T00:48:28.234Z,27.90
2022-11-05T00:50:57.094Z,24.33
2022-11-05T00:53:26.068Z,31.23
2022-11-05T01:09:03.021Z,32.78
2022-11-05T01:11:33.373Z,28.20
2022-11-05T01:14:11.443Z,29.02
2022-11-05T01:16:40.168Z,30.15
2022-11-05T01:19:10.364Z,30.27
2022-11-05T01:21:37.843Z,28.15
2022-11-05T01:24:05.430Z,31.63
2022-11-05T01:26:32.354Z,28.50
2022-11-05T01:29:02.439Z,31.30
2022-11-05T01:31:29.532Z,34.30
2022-11-05T01:33:56.506Z,29.25
2022-11-05T01:36:23.437Z,28.38
2022-11-05T01:38:52.521Z,30.67
2022-11-05T01:41:19.521Z,26.73
2022-11-05T01:43:57.628Z,27.15
2022-11-05T01:46:38.768Z,25.13
2022-11-05T01:49:33.266Z,27.27
2022-11-05T01:52:04.706Z,27.10
2022-11-05T01:54:34.792Z,28.88
2022-11-05T01:57:09.821Z,29.08
2022-11-05T01:59:46.888Z,25.92
2022-11-05T02:02:13.940Z,26.98
2022-11-05T02:04:58.807Z,25.70
2022-11-05T02:07:28.302Z,23.42
2022-11-05T02:10:18.083Z,25.05
2022-11-05T02:12:48.426Z,25.50
2022-11-05T02:15:43.465Z,25.23
2022-11-05T02:18:44.014Z,23.00
2022-11-05T02:22:15.330Z,28.60
2022-11-05T02:25:25.894Z,25.42
2022-11-05T02:28:23.671Z,26.30
2022-11-05T02:31:15.236Z,24.60
2022-11-05T02:34:20.690Z,26.50
2022-11-05T02:37:02.451Z,23.92
2022-11-05T02:39:56.348Z,23.75
2022-11-05T02:42:56.205Z,23.60
2022-11-05T02:46:19.984Z,24.27
2022-11-05T02:49:04.283Z,25.58
2022-11-05T02:51:53.437Z,22.17
2022-11-05T02:55:02.548Z,24.27
2022-11-05T02:57:30.757Z,24.05
2022-11-05T03:00:08.485Z,22.05
2022-11-05T03:02:35.825Z,25.13
2022-11-05T03:05:04.475Z,23.98
2022-11-05T03:07:53.037Z,26.60
2022-11-05T03:11:00.110Z,23.75
2022-11-05T03:13:59.020Z,23.95
2022-11-05T03:17:08.016Z,22.55
2022-11-05T03:20:28.221Z,23.33
2022-11-05T03:23:20.950Z,22.83
2022-11-05T03:26:01.962Z,22.97
2022-11-05T03:28:33.028Z,21.73
2022-11-05T03:31:02.814Z,22.38
2022-11-05T03:33:34.628Z,21.30
2022-11-05T03:36:09.648Z,21.95
2022-11-05T03:38:42.593Z,24.63
2022-11-05T03:41:15.599Z,22.83
2022-11-05T03:43:50.303Z,22.23
2022-11-05T03:46:33.048Z,21.67
2022-11-05T03:49:04.743Z,23.35
2022-11-05T03:51:49.794Z,24.33
2022-11-05T03:54:17.011Z,23.13
2022-11-05T03:57:09.624Z,24.65
2022-11-05T03:59:46.932Z,25.00
2022-11-05T04:02:17.876Z,23.20
2022-11-05T04:04:46.370Z,23.88
2022-11-05T04:07:39.929Z,27.95
2022-11-05T04:13:11.348Z,23.95
2022-11-05T04:16:01.655Z,24.88
2022-11-05T04:18:28.663Z,25.20
2022-11-05T04:21:14.019Z,22.17
2022-11-05T04:23:59.536Z,21.88
2022-11-05T04:26:26.464Z,22.50
2022-11-05T04:29:12.098Z,21.83
2022-11-05T04:31:39.432Z,25.65
2022-11-05T04:34:06.348Z,21.20
2022-11-05T04:36:33.361Z,24.40
2022-11-05T04:39:00.371Z,24.67
2022-11-05T04:41:27.358Z,24.52
2022-11-05T04:43:54.319Z,22.88
2022-11-05T04:46:22.575Z,24.13
2022-11-05T04:48:49.513Z,23.10
2022-11-05T04:51:16.887Z,24.52
2022-11-05T04:53:43.783Z,23.98
2022-11-05T04:56:14.922Z,24.38
2022-11-05T04:58:42.872Z,23.63
2022-11-05T05:01:15.037Z,25.80
2022-11-05T05:03:42.681Z,24.50
2022-11-05T05:06:10.450Z,24.70
2022-11-05T05:08:37.474Z,24.92
2022-11-05T05:11:08.412Z,24.70
2022-11-05T05:13:35.765Z,27.15
2022-11-05T05:16:08.296Z,23.88
2022-11-05T05:18:35.714Z,24.95
2022-11-05T05:21:21.710Z,25.00
2022-11-05T05:23:48.977Z,24.35
2022-11-05T05:26:16.845Z,27.30
2022-11-05T05:28:43.800Z,27.27
2022-11-05T05:31:10.901Z,23.33
2022-11-05T05:33:37.837Z,25.02
2022-11-05T05:36:10.117Z,25.02
2022-11-05T05:38:38.533Z,24.48
2022-11-05T05:41:05.761Z,25.00
2022-11-05T05:43:34.057Z,23.85
2022-11-05T05:46:11.093Z,23.63
2022-11-05T05:48:38.498Z,21.08
2022-11-05T05:51:09.742Z,21.05
2022-11-05T05:53:38.301Z,23.75
2022-11-05T05:56:06.394Z,22.27
2022-11-05T05:58:37.141Z,24.52
2022-11-05T06:01:07.708Z,22.23
2022-11-05T06:03:35.012Z,20.58
2022-11-05T06:06:11.340Z,24.40
2022-11-05T06:08:38.752Z,23.20
2022-11-05T06:11:07.024Z,23.73
2022-11-05T06:13:34.457Z,23.55
2022-11-05T06:16:03.518Z,24.88
2022-11-05T06:18:32.326Z,24.95
2022-11-05T06:21:15.136Z,26.08
2022-11-05T06:23:44.886Z,25.65
2022-11-05T06:26:16.577Z,26.73
2022-11-05T06:28:44.246Z,27.90
2022-11-05T06:31:13.310Z,25.73
2022-11-05T06:33:41.027Z,24.65
2022-11-05T06:36:14.957Z,26.65
2022-11-05T06:38:42.112Z,28.88
2022-11-05T06:41:10.646Z,25.73
2022-11-05T06:43:38.388Z,26.63
2022-11-05T06:46:05.643Z,28.30
2022-11-05T06:48:33.058Z,25.60
2022-11-05T06:51:00.076Z,25.70
2022-11-05T06:53:27.610Z,27.73
2022-11-05T06:55:54.620Z,30.60
2022-11-05T06:58:21.870Z,27.15
2022-11-05T07:00:52.799Z,31.27
2022-11-05T07:03:19.734Z,28.05
2022-11-05T07:05:49.620Z,29.48
2022-11-05T07:08:17.241Z,27.23
2022-11-05T07:10:44.392Z,27.38
2022-11-05T07:13:12.016Z,27.40
2022-11-05T07:15:39.443Z,27.95
2022-11-05T07:30:15.560Z,32.25
2022-11-05T07:32:42.540Z,31.30
2022-11-05T07:35:10.594Z,25.38
2022-11-05T07:37:50.302Z,24.65
2022-11-05T07:40:21.623Z,24.75
2022-11-05T07:42:54.562Z,29.15
2022-11-05T07:45:22.405Z,33.20
2022-11-05T07:47:58.672Z,30.40
2022-11-05T07:50:30.325Z,25.05
2022-11-05T07:53:15.187Z,26.15
2022-11-05T07:55:43.850Z,24.58
2022-11-05T07:58:11.927Z,25.95
2022-11-05T08:00:39.177Z,28.95
2022-11-05T08:03:17.692Z,29.38
2022-11-05T08:05:47.677Z,34.65
2022-11-05T08:08:18.339Z,29.50
2022-11-05T08:10:46.515Z,33.08
2022-11-05T08:13:14.725Z,29.45
2022-11-05T08:15:43.269Z,32.58
2022-11-05T08:18:17.894Z,31.38
2022-11-05T08:20:46.974Z,27.75
2022-11-05T08:23:17.175Z,27.58
2022-11-05T08:25:44.124Z,28.92
2022-11-05T08:28:13.165Z,27.58
2022-11-05T08:30:40.328Z,28.95
2022-11-05T08:33:11.923Z,29.73
2022-11-05T08:35:40.415Z,25.33
2022-11-05T08:38:10.469Z,27.38
2022-11-05T08:40:38.023Z,28.15
2022-11-05T08:43:07.239Z,28.17
2022-11-05T08:45:38.177Z,27.15
2022-11-05T08:48:13.101Z,28.15
2022-11-05T08:50:40.467Z,26.20
2022-11-05T08:53:09.271Z,26.23
2022-11-05T08:55:37.461Z,37.10
2022-11-05T08:58:12.830Z,32.25
2022-11-05T09:00:40.781Z,23.65
2022-11-05T09:03:09.707Z,28.98
2022-11-05T09:05:40.025Z,31.63
2022-11-05T09:08:18.993Z,64.72
2022-11-05T09:10:49.912Z,49.25
2022-11-05T09:13:19.887Z,36.03
2022-11-05T09:15:49.363Z,31.38
2022-11-05T09:18:18.514Z,32.03
2022-11-05T09:20:45.950Z,40.00
2022-11-05T09:23:15.210Z,48.72
2022-11-05T09:25:43.516Z,40.80
2022-11-05T09:28:22.443Z,43.83
2022-11-05T09:30:52.348Z,39.75
2022-11-05T09:33:24.218Z,35.50
2022-11-05T09:35:53.434Z,27.30
2022-11-05T09:38:20.780Z,27.17
2022-11-05T09:41:02.952Z,27.67
2022-11-05T09:43:49.195Z,27.00
2022-11-05T09:46:27.123Z,23.20
2022-11-05T09:49:05.065Z,30.77
2022-11-05T09:51:33.382Z,25.42
2022-11-05T09:54:02.155Z,19.73
2022-11-05T09:56:34.904Z,20.92
2022-11-05T09:59:27.615Z,23.75
2022-11-05T10:02:19.898Z,16.03
2022-11-05T10:04:52.887Z,20.23
2022-11-05T10:07:26.247Z,19.65
2022-11-05T10:10:01.358Z,17.73
2022-11-05T10:12:54.250Z,17.40
2022-11-05T10:15:39.104Z,18.85
2022-11-05T10:18:19.320Z,20.23
2022-11-05T10:20:46.603Z,19.80
2022-11-05T10:23:16.443Z,17.15
2022-11-05T10:26:09.581Z,12.10
2022-11-05T10:28:37.730Z,17.63
2022-11-05T10:31:09.662Z,14.25
2022-11-05T10:33:54.671Z,16.15
2022-11-05T10:36:28.975Z,18.60
2022-11-05T10:39:17.686Z,12.93
2022-11-05T10:42:14.948Z,16.77
2022-11-05T10:44:53.284Z,14.10
2022-11-05T10:48:21.783Z,10.73
2022-11-05T10:50:49.282Z,10.60
2022-11-05T10:53:30.059Z,10.00
2022-11-05T10:56:01.553Z,13.02
2022-11-05T10:58:32.650Z,13.43
2022-11-05T11:01:06.303Z,13.18
2022-11-05T11:03:51.180Z,12.48
2022-11-05T11:06:39.722Z,9.95
2022-11-05T11:09:20.060Z,12.95
2022-11-05T11:12:13.103Z,13.20
2022-11-05T11:14:40.261Z,11.02
2022-11-05T11:17:36.461Z,12.80
2022-11-05T11:20:32.055Z,12.48
2022-11-05T11:23:16.374Z,11.95
2022-11-05T11:25:57.609Z,13.55
2022-11-05T11:28:35.072Z,11.68
2022-11-05T11:31:21.702Z,11.07
2022-11-05T11:34:03.584Z,9.18
2022-11-05T11:36:44.577Z,8.65
2022-11-05T11:39:22.186Z,7.78
2022-11-05T11:42:01.829Z,8.23
2022-11-05T11:44:42.302Z,11.40
2022-11-05T11:47:19.797Z,9.18
2022-11-05T11:49:57.142Z,11.27
2022-11-05T11:52:34.508Z,9.82
2022-11-05T11:55:13.484Z,13.60
2022-11-05T11:58:05.310Z,13.95
2022-11-05T12:00:41.238Z,12.45
2022-11-05T12:03:46.762Z,11.65
2022-11-05T12:06:48.125Z,13.15
2022-11-05T12:09:49.597Z,13.13
2022-11-05T12:12:25.082Z,11.60
2022-11-05T12:15:32.489Z,14.30
2022-11-05T12:18:10.682Z,20.63
2022-11-05T12:21:06.172Z,14.18
2022-11-05T12:23:52.345Z,12.02
2022-11-05T12:26:34.167Z,10.65
2022-11-05T12:30:07.517Z,26.83
2022-11-05T12:32:45.759Z,11.65
2022-11-05T12:35:47.429Z,11.60
2022-11-05T12:38:30.430Z,10.70
2022-11-05T12:41:31.042Z,9.40
2022-11-05T12:44:33.037Z,17.45
2022-11-05T12:47:12.031Z,44.28
2022-11-05T12:49:53.630Z,21.75
2022-11-05T12:52:27.875Z,13.40
2022-11-05T12:55:38.083Z,11.63
2022-11-05T12:58:20.392Z,12.10
2022-11-05T13:00:58.702Z,14.55
2022-11-05T13:03:47.548Z,13.45
2022-11-05T13:06:22.045Z,14.75
2022-11-05T13:09:03.364Z,18.15
2022-11-05T13:11:41.998Z,13.40
2022-11-05T13:14:41.000Z,14.32
2022-11-05T13:18:01.829Z,10.45
2022-11-05T13:20:38.632Z,14.05
2022-11-05T13:23:26.207Z,13.20
2022-11-05T13:26:41.888Z,14.75
2022-11-05T13:29:22.291Z,12.77
2022-11-05T13:32:01.429Z,26.38
2022-11-05T13:34:33.462Z,37.78
2022-11-05T13:37:26.116Z,61.50
2022-11-05T13:39:58.658Z,65.68
2022-11-05T13:42:56.283Z,35.95
2022-11-05T13:45:44.887Z,22.67
2022-11-05T13:48:45.725Z,20.98
2022-11-05T13:52:10.185Z,29.92
2022-11-05T13:55:17.989Z,21.70
2022-11-05T13:58:10.245Z,14.82
2022-11-05T14:00:58.976Z,13.70
2022-11-05T14:03:27.472Z,17.58
2022-11-05T14:06:08.147Z,15.10
2022-11-05T14:08:46.298Z,16.88
2022-11-05T14:11:30.819Z,13.45
2022-11-05T14:14:08.943Z,15.82
2022-11-05T14:16:55.190Z,17.20
2022-11-05T14:19:34.950Z,17.30
2022-11-05T14:22:33.909Z,16.60
2022-11-05T14:25:29.010Z,14.00
2022-11-05T14:27:58.717Z,21.00
2022-11-05T14:30:48.085Z,15.15
2022-11-05T14:33:31.283Z,17.15
2022-11-05T14:36:19.694Z,18.05
2022-11-05T14:39:03.991Z,21.33
2022-11-05T14:41:31.535Z,14.80
2022-11-05T14:44:06.421Z,16.80
2022-11-05T14:46:49.992Z,19.23
2022-11-05T14:49:27.506Z,19.02
2022-11-05T14:52:06.272Z,21.58
2022-11-05T14:54:56.169Z,26.02
2022-11-05T14:57:44.475Z,20.75
2022-11-05T15:00:36.665Z,18.65
2022-11-05T15:03:46.471Z,20.55
2022-11-05T15:06:37.410Z,19.90
2022-11-05T15:09:23.228Z,19.50
2022-11-05T15:12:09.085Z,20.40
2022-11-05T15:15:05.026Z,21.00
2022-11-05T15:17:40.827Z,20.08
2022-11-05T15:20:24.647Z,21.30
2022-11-05T15:22:59.613Z,14.52
2022-11-05T15:26:07.737Z,16.35
2022-11-05T15:28:44.725Z,18.02
2022-11-05T15:31:14.647Z,21.38
2022-11-05T15:33:45.343Z,15.10
2022-11-05T15:36:29.413Z,15.02
2022-11-05T15:39:27.417Z,18.85
2022-11-05T15:41:46.605Z,18.63
2022-11-05T15:44:37.982Z,23.50
2022-11-05T15:47:36.930Z,21.83
2022-11-05T15:50:17.773Z,24.40
2022-11-05T15:52:56.676Z,23.00
2022-11-05T15:55:29.070Z,23.40
2022-11-05T15:58:10.047Z,21.73
2022-11-05T16:00:37.744Z,23.23
2022-11-05T16:03:32.674Z,20.60
2022-11-05T16:06:02.356Z,37.90
2022-11-05T16:08:31.599Z,45.15
2022-11-05T16:11:01.511Z,36.83
2022-11-05T16:13:41.867Z,36.28
2022-11-05T16:16:14.788Z,29.15
2022-11-05T16:18:44.231Z,25.67
2022-11-05T16:21:22.869Z,19.60
2022-11-05T16:23:49.860Z,23.25
2022-11-05T16:27:02.187Z,24.33
2022-11-05T16:29:35.997Z,23.73
2022-11-05T16:32:25.435Z,22.40
2022-11-05T16:35:03.218Z,17.17
2022-11-05T16:37:40.056Z,21.05
2022-11-05T16:40:18.307Z,29.52
2022-11-05T16:42:48.529Z,22.55
2022-11-05T16:45:19.184Z,24.13
2022-11-05T16:47:47.334Z,24.38
2022-11-05T16:50:26.482Z,19.95
2022-11-05T16:52:53.837Z,20.80
2022-11-05T16:55:21.229Z,20.48
2022-11-05T16:57:59.943Z,16.42
2022-11-05T17:00:26.992Z,20.02
2022-11-05T17:02:54.530Z,18.63
2022-11-05T17:05:30.407Z,21.10
2022-11-05T17:07:58.541Z,20.33
2022-11-05T17:10:27.195Z,16.77
2022-11-05T17:12:54.778Z,19.45
2022-11-05T17:15:36.575Z,22.60
2022-11-05T17:18:05.717Z,18.50
2022-11-05T17:20:48.380Z,17.02
2022-11-05T17:23:19.379Z,18.45
2022-11-05T17:25:54.151Z,18.30
2022-11-05T17:28:23.124Z,21.95
2022-11-05T17:30:56.743Z,22.83
2022-11-05T17:33:26.480Z,17.67
2022-11-05T17:35:54.561Z,19.30
2022-11-05T17:38:23.216Z,26.00
2022-11-05T17:40:51.504Z,21.58
2022-11-05T17:43:20.114Z,25.02
2022-11-05T17:45:51.853Z,24.77
2022-11-05T17:48:21.273Z,24.48
2022-11-05T17:50:50.624Z,27.65
2022-11-05T17:53:19.451Z,25.10
2022-11-05T17:55:47.919Z,27.80
2022-11-05T17:58:15.892Z,28.60
2022-11-05T18:00:44.734Z,27.33
2022-11-05T18:03:15.817Z,22.35
2022-11-05T18:05:43.193Z,24.17
2022-11-05T18:08:12.600Z,21.42
2022-11-05T18:10:41.003Z,35.55
2022-11-05T18:13:08.813Z,29.73
2022-11-05T18:15:40.943Z,19.92
2022-11-05T18:18:08.516Z,17.95
2022-11-05T18:20:37.816Z,15.57
2022-11-05T18:23:05.488Z,17.15
2022-11-05T18:25:34.958Z,33.50
2022-11-05T18:28:06.352Z,33.85
2022-11-05T18:30:34.268Z,50.28
2022-11-05T18:33:01.332Z,50.67
2022-11-05T18:35:28.326Z,144.57
2022-11-05T18:37:55.386Z,109.25
2022-11-05T18:40:22.885Z,216.98
2022-11-05T18:42:50.016Z,211.63
2022-11-05T18:45:17.567Z,159.90
2022-11-05T18:47:44.963Z,156.13
2022-11-05T19:02:48.790Z,90.50
2022-11-05T19:05:32.200Z,64.85
2022-11-05T19:10:27.708Z,36.20
2022-11-05T19:12:55.158Z,43.13
2022-11-05T19:15:22.452Z,87.25
2022-11-05T19:17:49.706Z,56.38
2022-11-05T19:20:16.908Z,58.40
2022-11-05T19:22:44.270Z,79.10
2022-11-05T19:25:11.759Z,65.07
2022-11-05T19:27:43.684Z,58.85
2022-11-05T19:30:11.148Z,43.53
2022-11-05T19:32:38.343Z,49.72
2022-11-05T19:35:05.727Z,41.28
2022-11-05T19:37:32.969Z,114.72
2022-11-05T19:40:00.059Z,132.95
2022-11-05T19:42:27.400Z,105.70
2022-11-05T19:44:54.458Z,131.20
2022-11-05T19:47:21.579Z,118.22
2022-11-05T19:49:48.665Z,93.55
2022-11-05T19:52:15.806Z,85.32
2022-11-05T19:54:42.921Z,89.82
2022-11-05T19:57:10.121Z,63.33
2022-11-05T19:59:37.820Z,87.88
2022-11-05T20:02:06.851Z,93.13
2022-11-05T20:04:36.594Z,63.55
2022-11-05T20:07:04.280Z,66.53
2022-11-05T20:09:32.680Z,71.55
2022-11-05T20:12:00.690Z,95.53
2022-11-05T20:14:30.424Z,91.43
2022-11-05T20:16:59.276Z,127.90
2022-11-05T20:19:27.820Z,127.90
2022-11-05T20:21:55.624Z,127.80
2022-11-05T20:24:25.057Z,127.72
2022-11-05T20:26:58.837Z,127.95
2022-11-05T20:29:32.214Z,96.70
2022-11-05T20:32:05.075Z,80.78
2022-11-05T20:34:34.215Z,76.65
2022-11-05T20:37:02.721Z,75.35
2022-11-05T20:39:30.605Z,60.08
2022-11-05T20:42:02.338Z,59.38
2022-11-05T20:44:30.887Z,82.70
2022-11-05T20:46:58.564Z,59.15
2022-11-05T20:49:26.349Z,66.38
2022-11-05T20:51:54.171Z,69.07
2022-11-05T20:54:26.412Z,74.65
2022-11-05T20:56:54.466Z,75.57
2022-11-05T20:59:22.554Z,62.30
2022-11-05T21:01:52.159Z,53.15
2022-11-05T21:04:19.829Z,50.80
2022-11-05T21:06:50.014Z,61.70
2022-11-05T21:09:17.342Z,56.67
2022-11-05T21:12:03.413Z,43.50
2022-11-05T21:14:31.335Z,52.17
2022-11-05T21:16:58.518Z,42.53
2022-11-05T21:19:26.721Z,41.83
2022-11-05T21:21:54.029Z,44.92
2022-11-05T21:24:21.253Z,33.33
2022-11-05T21:26:50.203Z,28.67
2022-11-05T21:29:18.968Z,27.30
2022-11-05T21:31:47.103Z,22.08
2022-11-05T21:34:15.021Z,23.40
2022-11-05T21:36:42.325Z,28.20
2022-11-05T21:39:13.477Z,31.67
2022-11-05T21:41:41.184Z,28.50
2022-11-05T21:44:09.029Z,28.10
2022-11-05T21:46:37.986Z,24.45
2022-11-05T21:49:07.067Z,29.02
2022-11-05T21:51:54.142Z,25.98
2022-11-05T21:54:39.981Z,28.00
2022-11-05T21:57:33.915Z,32.38
2022-11-05T22:00:09.213Z,34.88
2022-11-05T22:02:36.960Z,38.30
2022-11-05T22:05:05.886Z,34.80
2022-11-05T22:07:37.935Z,34.90
2022-11-05T22:10:14.670Z,34.83
2022-11-05T22:12:45.655Z,29.88
2022-11-05T22:15:13.704Z,31.38
2022-11-05T22:17:47.299Z,33.25
2022-11-05T22:20:16.373Z,27.95
2022-11-05T22:34:17.783Z,33.75
2022-11-05T22:36:45.066Z,34.22
2022-11-05T22:39:13.228Z,30.55
2022-11-05T22:41:44.189Z,36.10
2022-11-05T22:44:14.040Z,30.67
2022-11-05T22:46:42.432Z,32.97
2022-11-05T22:49:09.613Z,33.63
2022-11-05T22:51:39.525Z,33.25
2022-11-05T22:54:07.714Z,28.30
2022-11-05T22:56:40.197Z,34.67
2022-11-05T22:59:12.972Z,25.73
2022-11-05T23:01:44.150Z,28.48
2022-11-05T23:04:13.256Z,30.27
2022-11-05T23:06:59.434Z,36.05
2022-11-05T23:09:50.303Z,29.38
2022-11-05T23:12:33.947Z,28.00
2022-11-05T23:15:03.684Z,32.38
2022-11-05T23:18:06.590Z,31.73
2022-11-05T23:20:52.445Z,34.97
2022-11-05T23:23:37.975Z,31.35
2022-11-05T23:26:25.090Z,31.17
2022-11-05T23:28:52.216Z,30.27
2022-11-05T23:31:38.067Z,32.40
2022-11-05T23:34:05.097Z,39.25
2022-11-05T23:36:50.778Z,27.95
2022-11-05T23:39:17.821Z,27.80
2022-11-05T23:42:06.783Z,30.10
2022-11-05T23:44:52.375Z,26.15
2022-11-05T23:47:37.673Z,23.10
2022-11-05T23:50:05.398Z,28.15
2022-11-05T23:52:32.461Z,26.45
2022-11-05T23:54:59.451Z,27.70
2022-11-05T23:57:26.603Z,25.85
2022-11-05T23:59:56.471Z,28.00
